Time,TemperatureF,DewpointF,PressureIn,WindDirection,WindDirectionDegrees,WindSpeedMPH,WindSpeedGustMPH,Humidity,HourlyPrecipIn,Conditions,Clouds,dailyrainin,SolarRadiationWatts/m^2,SoftwareType,DateUTC
2013-11-02 00:03:00,45.7,40.5,29.94,SW,217,0.0,0.0,82,0.00,,,0.00,0,WeatherCatV1.23B14,2013-11-02 07:03:00,
2013-11-02 00:13:00,45.4,40.2,29.94,SW,217,0.0,0.0,82,0.00,,,0.00,0,WeatherCatV1.23B14,2013-11-02 07:13:00,
2013-11-02 00:23:00,45.2,40.3,29.93,SW,229,0.0,0.0,83,0.00,,,0.00,0,WeatherCatV1.23B14,2013-11-02 07:23:00,
2013-11-02 00:33:00,45.1,40.2,29.93,SW,219,0.0,0.0,83,0.00,,,0.00,0,WeatherCatV1.23B14,2013-11-02 07:33:00,
2013-11-02 00:38:00,44.8,40.0,29.93,SW,220,0.0,0.0,83,0.00,,,0.00,0,WeatherCatV1.23B14,2013-11-02 07:38:00,
2013-11-02 00:43:00,44.8,40.0,29.93,SSW,209,0.0,0.0,83,0.00,,,0.00,0,WeatherCatV1.23B14,2013-11-02 07:43:00,
2013-11-02 00:53:00,44.5,39.7,29.93,SW,217,0.0,0.0,83,0.00,,,0.00,0,WeatherCatV1.23B14,2013-11-02 07:53:00,
2013-11-02 01:04:00,44.2,39.4,29.93,SSW,192,0.0,0.0,83,0.00,,,0.00,0,WeatherCatV1.23B14,2013-11-02 08:04:00,
2013-11-02 01:14:00,44.2,39.7,29.93,SSW,193,0.0,0.0,84,0.00,,,0.00,0,WeatherCatV1.23B14,2013-11-02 08:14:00,
2013-11-02 01:19:00,43.9,39.4,29.93,SSW,200,0.0,0.0,84,0.00,,,0.00,0,WeatherCatV1.23B14,2013-11-02 08:19:00,
2013-11-02 01:24:00,43.9,39.4,29.93,SSW,203,0.0,0.0,84,0.00,,,0.00,0,WeatherCatV1.23B14,2013-11-02 08:24:00,
2013-11-02 01:29:00,43.9,39.4,29.93,SSW,198,0.0,0.0,84,0.00,,,0.00,0,WeatherCatV1.23B14,2013-11-02 08:29:00,
2013-11-02 01:44:00,43.6,39.1,29.93,SSE,147,0.0,0.0,84,0.00,,,0.00,0,WeatherCatV1.23B14,2013-11-02 08:44:00,
2013-11-02 01:49:00,43.5,39.3,29.93,SSE,148,0.0,0.0,85,0.00,,,0.00,0,WeatherCatV1.23B14,2013-11-02 08:49:00,
2013-11-02 01:54:00,43.5,39.3,29.93,South,176,0.0,0.0,85,0.00,,,0.00,0,WeatherCatV1.23B14,2013-11-02 08:54:00,
2013-11-02 02:04:00,43.3,39.1,29.93,SSE,164,0.0,0.0,85,0.00,,,0.00,0,WeatherCatV1.23B14,2013-11-02 09:04:00,
2013-11-02 02:14:00,43.1,38.9,29.93,South,182,0.0,0.0,85,0.00,,,0.00,0,WeatherCatV1.23B14,2013-11-02 09:14:00,
2013-11-02 02:19:00,43.1,38.9,29.93,SSW,193,0.0,0.0,85,0.00,,,0.00,0,WeatherCatV1.23B14,2013-11-02 09:19:00,
2013-11-02 02:24:00,43.2,39.3,29.93,South,182,0.0,0.0,86,0.00,,,0.00,0,WeatherCatV1.23B14,2013-11-02 09:24:00,
2013-11-02 02:39:00,42.9,39.0,29.93,South,169,0.0,0.0,86,0.00,,,0.00,0,WeatherCatV1.23B14,2013-11-02 09:39:00,
2013-11-02 02:44:00,42.9,39.0,29.93,SSE,168,0.0,0.0,86,0.00,,,0.00,0,WeatherCatV1.23B14,2013-11-02 09:44:00,
2013-11-02 02:49:00,42.8,38.9,29.92,South,184,0.0,0.0,86,0.00,,,0.00,0,WeatherCatV1.23B14,2013-11-02 09:49:00,
2013-11-02 02:54:00,42.8,38.9,29.92,South,175,0.0,0.0,86,0.00,,,0.00,0,WeatherCatV1.23B14,2013-11-02 09:54:00,
2013-11-02 03:09:00,42.8,39.2,29.92,South,175,0.0,0.0,87,0.00,,,0.00,0,WeatherCatV1.23B14,2013-11-02 10:09:00,
2013-11-02 03:14:00,42.8,39.2,29.92,South,182,0.0,0.0,87,0.00,,,0.00,0,WeatherCatV1.23B14,2013-11-02 10:14:00,
2013-11-02 03:20:00,42.6,39.0,29.92,SSW,192,0.0,0.0,87,0.00,,,0.00,0,WeatherCatV1.23B14,2013-11-02 10:20:00,
2013-11-02 03:25:00,42.6,39.0,29.92,SSW,195,0.0,0.0,87,0.00,,,0.00,0,WeatherCatV1.23B14,2013-11-02 10:25:00,
2013-11-02 03:35:00,42.6,39.0,29.92,South,185,0.0,0.0,87,0.00,,,0.00,0,WeatherCatV1.23B14,2013-11-02 10:35:00,
2013-11-02 03:40:00,42.5,38.9,29.92,SSE,167,0.0,0.0,87,0.00,,,0.00,0,WeatherCatV1.23B14,2013-11-02 10:40:00,
2013-11-02 03:50:00,42.6,39.3,29.92,South,176,0.0,0.0,88,0.00,,,0.00,0,WeatherCatV1.23B14,2013-11-02 10:50:00,
2013-11-02 04:00:00,42.8,39.5,29.92,South,186,0.0,0.0,88,0.00,,,0.00,0,WeatherCatV1.23B14,2013-11-02 11:00:00,
2013-11-02 04:10:00,42.6,39.3,29.92,SSE,168,0.0,0.0,88,0.00,,,0.00,0,WeatherCatV1.23B14,2013-11-02 11:10:00,
2013-11-02 04:15:00,42.6,39.3,29.91,South,182,0.0,0.0,88,0.00,,,0.00,0,WeatherCatV1.23B14,2013-11-02 11:15:00,
2013-11-02 04:25:00,42.5,39.2,29.91,South,171,0.0,0.0,88,0.00,,,0.00,0,WeatherCatV1.23B14,2013-11-02 11:25:00,
2013-11-02 04:30:00,42.5,39.2,29.91,SSW,192,0.0,0.0,88,0.00,,,0.00,0,WeatherCatV1.23B14,2013-11-02 11:30:00,
2013-11-02 04:35:00,42.3,39.0,29.91,East,100,0.0,0.0,88,0.00,,,0.00,0,WeatherCatV1.23B14,2013-11-02 11:35:00,
2013-11-02 04:40:00,42.3,39.0,29.91,SSW,212,0.0,0.0,88,0.00,,,0.00,0,WeatherCatV1.23B14,2013-11-02 11:40:00,
2013-11-02 04:55:00,42.1,38.8,29.91,SSW,212,0.0,0.0,88,0.00,,,0.00,0,WeatherCatV1.23B14,2013-11-02 11:55:00,
2013-11-02 05:05:00,41.9,38.6,29.91,SSW,206,0.0,0.0,88,0.00,,,0.00,0,WeatherCatV1.23B14,2013-11-02 12:05:00,
2013-11-02 05:15:00,41.9,38.6,29.91,SSW,205,0.0,0.0,88,0.00,,,0.00,0,WeatherCatV1.23B14,2013-11-02 12:15:00,
2013-11-02 05:25:00,41.9,38.9,29.91,SSW,212,0.0,0.0,89,0.00,,,0.00,0,WeatherCatV1.23B14,2013-11-02 12:25:00,
2013-11-02 05:35:00,41.8,38.8,29.91,SSW,208,0.0,0.0,89,0.00,,,0.00,0,WeatherCatV1.23B14,2013-11-02 12:35:00,
2013-11-02 05:45:00,41.8,38.8,29.91,SSW,199,0.0,0.0,89,0.00,,,0.00,0,WeatherCatV1.23B14,2013-11-02 12:45:00,
2013-11-02 05:55:00,41.6,38.6,29.91,SSW,193,0.0,0.0,89,0.00,,,0.00,0,WeatherCatV1.23B14,2013-11-02 12:55:00,
2013-11-02 06:05:00,41.6,38.6,29.92,SSW,198,0.0,0.0,89,0.00,,,0.00,0,WeatherCatV1.23B14,2013-11-02 13:05:00,
2013-11-02 06:15:00,41.5,38.5,29.92,SSW,208,0.0,0.0,89,0.00,,,0.00,0,WeatherCatV1.23B14,2013-11-02 13:15:00,
2013-11-02 06:25:00,41.3,38.3,29.92,SSW,208,0.0,0.0,89,0.00,,,0.00,0,WeatherCatV1.23B14,2013-11-02 13:25:00,
2013-11-02 06:35:00,41.3,38.6,29.92,ESE,110,0.0,0.0,90,0.00,,,0.00,0,WeatherCatV1.23B14,2013-11-02 13:35:00,
2013-11-02 06:46:00,41.1,38.1,29.92,SSW,212,0.0,0.0,89,0.00,,,0.00,0,WeatherCatV1.23B14,2013-11-02 13:46:00,
2013-11-02 06:56:00,41.1,38.1,29.92,SSW,209,0.0,0.0,89,0.00,,,0.00,0,WeatherCatV1.23B14,2013-11-02 13:56:00,
2013-11-02 07:06:00,40.9,38.2,29.93,SSW,208,0.0,0.0,90,0.00,,,0.00,0,WeatherCatV1.23B14,2013-11-02 14:06:00,
2013-11-02 07:11:00,40.8,38.1,29.93,SSW,206,0.0,0.0,90,0.00,,,0.00,0,WeatherCatV1.23B14,2013-11-02 14:11:00,
2013-11-02 07:26:00,40.8,38.1,29.93,SSW,213,0.0,0.0,90,0.00,,,0.00,0,WeatherCatV1.23B14,2013-11-02 14:26:00,
2013-11-02 07:36:00,40.9,38.5,29.93,SSW,212,0.0,0.0,91,0.00,,,0.00,0,WeatherCatV1.23B14,2013-11-02 14:36:00,
2013-11-02 07:46:00,41.1,38.7,29.93,SSW,212,0.0,0.0,91,0.00,,,0.00,0,WeatherCatV1.23B14,2013-11-02 14:46:00,
2013-11-02 07:56:00,41.2,38.8,29.93,SSW,213,0.0,0.0,91,0.00,,,0.00,7,WeatherCatV1.23B14,2013-11-02 14:56:00,
2013-11-02 08:06:00,41.5,39.3,29.93,SW,217,0.0,0.0,92,0.00,,,0.00,18,WeatherCatV1.23B14,2013-11-02 15:06:00,
2013-11-02 08:16:00,41.9,39.8,29.93,SW,220,0.0,0.0,92,0.00,,,0.00,19,WeatherCatV1.23B14,2013-11-02 15:16:00,
2013-11-02 08:26:00,42.5,40.3,29.93,SW,217,0.0,0.0,92,0.00,,,0.00,33,WeatherCatV1.23B14,2013-11-02 15:26:00,
2013-11-02 08:36:00,44.2,42.3,29.93,WNW,301,0.0,0.0,93,0.00,,,0.00,33,WeatherCatV1.23B14,2013-11-02 15:36:00,
2013-11-02 08:41:00,45.4,43.5,29.93,WSW,254,0.0,0.0,93,0.00,,,0.00,33,WeatherCatV1.23B14,2013-11-02 15:41:00,
2013-11-02 08:46:00,47.0,45.1,29.92,West,261,0.0,0.0,93,0.00,,,0.00,171,WeatherCatV1.23B14,2013-11-02 15:46:00,
2013-11-02 08:51:00,47.6,45.7,29.92,SW,236,0.0,0.0,93,0.00,,,0.00,171,WeatherCatV1.23B14,2013-11-02 15:51:00,
2013-11-02 08:56:00,47.9,45.7,29.92,SW,224,0.0,0.0,92,0.00,,,0.00,190,WeatherCatV1.23B14,2013-11-02 15:56:00,
2013-11-02 09:06:00,49.8,47.3,29.92,West,260,0.0,0.0,91,0.00,,,0.00,211,WeatherCatV1.23B14,2013-11-02 16:06:00,
2013-11-02 09:11:00,51.7,49.2,29.92,SW,236,0.0,0.0,91,0.00,,,0.00,238,WeatherCatV1.23B14,2013-11-02 16:11:00,
2013-11-02 09:16:00,52.5,50.0,29.93,WSW,253,0.0,0.0,91,0.00,,,0.00,248,WeatherCatV1.23B14,2013-11-02 16:16:00,
2013-11-02 09:26:00,54.5,50.1,29.93,WSW,257,0.0,0.0,85,0.00,,,0.00,303,WeatherCatV1.23B14,2013-11-02 16:26:00,
2013-11-02 09:31:00,55.0,50.2,29.93,West,263,0.0,0.0,84,0.00,,,0.00,318,WeatherCatV1.23B14,2013-11-02 16:31:00,
2013-11-02 09:41:00,56.9,50.8,29.93,WSW,248,0.0,0.0,80,0.00,,,0.00,340,WeatherCatV1.23B14,2013-11-02 16:41:00,
2013-11-02 09:51:00,58.1,50.9,29.93,West,272,0.0,0.0,77,0.00,,,0.00,364,WeatherCatV1.23B14,2013-11-02 16:51:00,
2013-11-02 10:01:00,59.8,50.4,29.93,West,275,0.0,0.0,71,0.00,,,0.00,380,WeatherCatV1.23B14,2013-11-02 17:01:00,
2013-11-02 10:12:00,60.5,49.9,29.93,WNW,289,0.0,0.0,68,0.00,,,0.00,424,WeatherCatV1.23B14,2013-11-02 17:12:00,
2013-11-02 10:17:00,60.9,50.3,29.92,WNW,302,0.0,1.0,68,0.00,,,0.00,424,WeatherCatV1.23B14,2013-11-02 17:17:00,
2013-11-02 10:22:00,61.3,50.2,29.92,West,278,0.0,0.0,67,0.00,,,0.00,450,WeatherCatV1.23B14,2013-11-02 17:22:00,
2013-11-02 10:32:00,62.0,50.9,29.92,WNW,295,0.0,1.0,67,0.00,,,0.00,479,WeatherCatV1.23B14,2013-11-02 17:32:00,
2013-11-02 10:42:00,62.6,50.2,29.92,NNW,337,1.0,1.0,64,0.00,,,0.00,519,WeatherCatV1.23B14,2013-11-02 17:42:00,
2013-11-02 10:47:00,63.2,50.0,29.92,NNW,330,0.0,0.0,62,0.00,,,0.00,538,WeatherCatV1.23B14,2013-11-02 17:47:00,
2013-11-02 10:52:00,64.0,49.8,29.92,NW,325,2.0,2.0,60,0.00,,,0.00,549,WeatherCatV1.23B14,2013-11-02 17:52:00,
2013-11-02 11:02:00,63.9,49.7,29.92,NNW,337,0.0,0.0,60,0.00,,,0.00,549,WeatherCatV1.23B14,2013-11-02 18:02:00,
2013-11-02 11:07:00,64.3,50.1,29.92,NNW,330,1.0,1.0,60,0.00,,,0.00,482,WeatherCatV1.23B14,2013-11-02 18:07:00,
2013-11-02 11:17:00,65.6,50.9,29.91,North,353,0.0,0.0,59,0.00,,,0.00,570,WeatherCatV1.23B14,2013-11-02 18:17:00,
2013-11-02 11:27:00,65.6,50.4,29.91,NNW,332,0.0,0.0,58,0.00,,,0.00,535,WeatherCatV1.23B14,2013-11-02 18:27:00,
2013-11-02 11:32:00,66.0,50.3,29.91,NW,323,0.0,0.0,57,0.00,,,0.00,558,WeatherCatV1.23B14,2013-11-02 18:32:00,
2013-11-02 11:37:00,66.1,49.9,29.91,NW,311,2.0,2.0,56,0.00,,,0.00,558,WeatherCatV1.23B14,2013-11-02 18:37:00,
2013-11-02 11:43:00,65.8,49.7,29.91,NW,306,1.0,1.0,56,0.00,,,0.00,558,WeatherCatV1.23B14,2013-11-02 18:43:00,
2013-11-02 11:58:00,64.8,50.6,29.91,NW,325,0.0,0.0,60,0.00,,,0.00,642,WeatherCatV1.23B14,2013-11-02 18:58:00,
2013-11-02 12:08:00,65.0,50.8,29.90,NNW,342,1.0,3.0,60,0.00,,,0.00,642,WeatherCatV1.23B14,2013-11-02 19:08:00,
2013-11-02 12:18:00,65.5,50.3,29.90,NNW,342,0.0,0.0,58,0.00,,,0.00,623,WeatherCatV1.23B14,2013-11-02 19:18:00,
2013-11-02 12:23:00,66.3,50.6,29.90,NW,311,0.0,1.0,57,0.00,,,0.00,670,WeatherCatV1.23B14,2013-11-02 19:23:00,
2013-11-02 12:28:00,66.8,51.1,29.90,North,350,0.0,0.0,57,0.00,,,0.00,665,WeatherCatV1.23B14,2013-11-02 19:28:00,
2013-11-02 12:38:00,67.9,50.6,29.90,North,354,2.0,3.0,54,0.00,,,0.00,561,WeatherCatV1.23B14,2013-11-02 19:38:00,
2013-11-02 12:43:00,68.3,50.5,29.90,NNW,346,1.0,1.0,53,0.00,,,0.00,561,WeatherCatV1.23B14,2013-11-02 19:43:00,
2013-11-02 12:48:00,68.1,50.3,29.89,North,353,0.0,6.0,53,0.00,,,0.00,607,WeatherCatV1.23B14,2013-11-02 19:48:00,
2013-11-02 12:53:00,67.6,49.8,29.89,NNW,343,2.0,5.0,53,0.00,,,0.00,545,WeatherCatV1.23B14,2013-11-02 19:53:00,
2013-11-02 12:58:00,67.1,49.9,29.89,NNW,340,0.0,1.0,54,0.00,,,0.00,545,WeatherCatV1.23B14,2013-11-02 19:58:00,
2013-11-02 13:03:00,66.4,50.2,29.88,North,353,1.0,3.0,56,0.00,,,0.00,545,WeatherCatV1.23B14,2013-11-02 20:03:00,
2013-11-02 13:08:00,66.3,50.1,29.88,North,353,0.0,1.0,56,0.00,,,0.00,545,WeatherCatV1.23B14,2013-11-02 20:08:00,
2013-11-02 13:13:00,66.3,51.1,29.88,NNW,342,1.0,1.0,58,0.00,,,0.00,621,WeatherCatV1.23B14,2013-11-02 20:13:00,
2013-11-02 13:23:00,67.1,51.8,29.88,North,349,0.0,3.0,58,0.00,,,0.00,621,WeatherCatV1.23B14,2013-11-02 20:23:00,
2013-11-02 13:33:00,67.9,50.6,29.88,NNW,335,1.0,1.0,54,0.00,,,0.00,674,WeatherCatV1.23B14,2013-11-02 20:33:00,
2013-11-02 13:43:00,68.3,51.0,29.88,NNW,330,1.0,1.0,54,0.00,,,0.00,674,WeatherCatV1.23B14,2013-11-02 20:43:00,
2013-11-02 13:53:00,68.6,50.8,29.87,NNW,337,2.0,3.0,53,0.00,,,0.00,582,WeatherCatV1.23B14,2013-11-02 20:53:00,
2013-11-02 14:03:00,68.1,49.8,29.86,NNW,330,0.0,5.0,52,0.00,,,0.00,498,WeatherCatV1.23B14,2013-11-02 21:03:00,
2013-11-02 14:13:00,68.3,50.0,29.86,NW,312,0.0,0.0,52,0.00,,,0.00,595,WeatherCatV1.23B14,2013-11-02 21:13:00,
2013-11-02 14:23:00,68.4,50.1,29.85,NNW,332,0.0,2.0,52,0.00,,,0.00,595,WeatherCatV1.23B14,2013-11-02 21:23:00,
2013-11-02 14:33:00,68.4,50.1,29.85,NNW,339,1.0,1.0,52,0.00,,,0.00,595,WeatherCatV1.23B14,2013-11-02 21:33:00,
2013-11-02 14:44:00,68.4,50.1,29.85,NW,309,0.0,1.0,52,0.00,,,0.00,306,WeatherCatV1.23B14,2013-11-02 21:44:00,
2013-11-02 14:54:00,68.6,50.8,29.84,NW,326,0.0,1.0,53,0.00,,,0.00,306,WeatherCatV1.23B14,2013-11-02 21:54:00,
2013-11-02 15:04:00,68.8,51.0,29.84,NW,313,0.0,1.0,53,0.00,,,0.00,310,WeatherCatV1.23B14,2013-11-02 22:04:00,
2013-11-02 15:14:00,69.3,50.4,29.84,NW,326,0.0,2.0,51,0.00,,,0.00,290,WeatherCatV1.23B14,2013-11-02 22:14:00,
2013-11-02 15:19:00,69.6,50.7,29.84,NNW,337,0.0,0.0,51,0.00,,,0.00,290,WeatherCatV1.23B14,2013-11-02 22:19:00,
2013-11-02 15:24:00,69.8,50.8,29.84,NW,315,0.0,0.0,51,0.00,,,0.00,290,WeatherCatV1.23B14,2013-11-02 22:24:00,
2013-11-02 15:29:00,69.8,50.8,29.84,NNW,329,0.0,0.0,51,0.00,,,0.00,290,WeatherCatV1.23B14,2013-11-02 22:29:00,
2013-11-02 15:34:00,69.9,50.9,29.84,NW,318,0.0,0.0,51,0.00,,,0.00,347,WeatherCatV1.23B14,2013-11-02 22:34:00,
2013-11-02 15:44:00,70.1,50.6,29.84,NW,308,0.0,2.0,50,0.00,,,0.00,188,WeatherCatV1.23B14,2013-11-02 22:44:00,
2013-11-02 15:49:00,69.9,50.9,29.84,WNW,295,0.0,0.0,51,0.00,,,0.00,188,WeatherCatV1.23B14,2013-11-02 22:49:00,
2013-11-02 15:54:00,70.1,51.6,29.84,NW,315,0.0,0.0,52,0.00,,,0.00,223,WeatherCatV1.23B14,2013-11-02 22:54:00,
2013-11-02 16:04:00,70.3,51.8,29.83,NNW,329,0.0,1.0,52,0.00,,,0.00,223,WeatherCatV1.23B14,2013-11-02 23:04:00,
2013-11-02 16:09:00,70.3,51.8,29.83,NNW,330,0.0,0.0,52,0.00,,,0.00,148,WeatherCatV1.23B14,2013-11-02 23:09:00,
2013-11-02 16:14:00,70.1,51.6,29.83,NW,325,1.0,1.0,52,0.00,,,0.00,148,WeatherCatV1.23B14,2013-11-02 23:14:00,
2013-11-02 16:19:00,70.1,51.1,29.83,NNW,339,0.0,1.0,51,0.00,,,0.00,174,WeatherCatV1.23B14,2013-11-02 23:19:00,
2013-11-02 16:24:00,70.1,50.6,29.83,NNW,339,2.0,2.0,50,0.00,,,0.00,183,WeatherCatV1.23B14,2013-11-02 23:24:00,
2013-11-02 16:34:00,69.9,50.4,29.83,North,356,0.0,0.0,50,0.00,,,0.00,88,WeatherCatV1.23B14,2013-11-02 23:34:00,
2013-11-02 16:39:00,69.9,50.9,29.83,North,353,1.0,1.0,51,0.00,,,0.00,88,WeatherCatV1.23B14,2013-11-02 23:39:00,
2013-11-02 16:44:00,70.1,51.1,29.83,NNW,347,0.0,0.0,51,0.00,,,0.00,123,WeatherCatV1.23B14,2013-11-02 23:44:00,
2013-11-02 16:49:00,70.1,51.1,29.83,NNW,343,1.0,1.0,51,0.00,,,0.00,123,WeatherCatV1.23B14,2013-11-02 23:49:00,
2013-11-02 16:59:00,70.1,51.6,29.83,NNW,343,0.0,0.0,52,0.00,,,0.00,77,WeatherCatV1.23B14,2013-11-02 23:59:00,
2013-11-02 17:04:00,69.6,51.2,29.83,NW,325,0.0,1.0,52,0.00,,,0.00,53,WeatherCatV1.23B14,2013-11-03 00:04:00,
2013-11-02 17:19:00,67.3,51.5,29.82,North,356,0.0,2.0,57,0.00,,,0.00,25,WeatherCatV1.23B14,2013-11-03 00:19:00,
2013-11-02 17:24:00,66.6,51.8,29.82,NW,322,1.0,1.0,59,0.00,,,0.00,25,WeatherCatV1.23B14,2013-11-03 00:24:00,
2013-11-02 17:29:00,66.4,52.1,29.82,North,350,0.0,2.0,60,0.00,,,0.00,19,WeatherCatV1.23B14,2013-11-03 00:29:00,
2013-11-02 17:34:00,66.0,51.7,29.82,WNW,301,0.0,1.0,60,0.00,,,0.00,16,WeatherCatV1.23B14,2013-11-03 00:34:00,
2013-11-02 17:44:00,65.2,51.8,29.82,North,353,0.0,1.0,62,0.00,,,0.00,14,WeatherCatV1.23B14,2013-11-03 00:44:00,
2013-11-02 17:49:00,64.8,51.5,29.82,NNW,344,1.0,1.0,62,0.00,,,0.00,14,WeatherCatV1.23B14,2013-11-03 00:49:00,
2013-11-02 17:54:00,64.0,50.7,29.82,North,349,0.0,1.0,62,0.00,,,0.00,7,WeatherCatV1.23B14,2013-11-03 00:54:00,
2013-11-02 18:10:00,62.6,50.7,29.82,SSW,196,0.0,1.0,65,0.00,,,0.00,0,WeatherCatV1.23B14,2013-11-03 01:10:00,
2013-11-02 18:20:00,62.0,50.9,29.82,NNW,340,0.0,0.0,67,0.00,,,0.00,0,WeatherCatV1.23B14,2013-11-03 01:20:00,
2013-11-02 18:40:00,60.4,50.2,29.82,North,353,0.0,0.0,69,0.00,,,0.00,0,WeatherCatV1.23B14,2013-11-03 01:40:00,
2013-11-02 19:01:00,58.4,49.8,29.82,North,353,0.0,0.0,73,0.00,,,0.00,0,WeatherCatV1.23B14,2013-11-03 02:01:00,
2013-11-02 19:11:00,57.6,49.4,29.82,North,353,0.0,0.0,74,0.00,,,0.00,0,WeatherCatV1.23B14,2013-11-03 02:11:00,
2013-11-02 19:16:00,57.2,49.3,29.83,North,353,0.0,0.0,75,0.00,,,0.00,0,WeatherCatV1.23B14,2013-11-03 02:16:00,
2013-11-02 19:21:00,56.7,49.2,29.83,NNW,347,0.0,0.0,76,0.00,,,0.00,0,WeatherCatV1.23B14,2013-11-03 02:21:00,
2013-11-02 19:31:00,55.9,48.8,29.83,NNW,347,0.0,0.0,77,0.00,,,0.00,0,WeatherCatV1.23B14,2013-11-03 02:31:00,
2013-11-02 19:36:00,55.4,48.3,29.83,NNW,337,0.0,0.0,77,0.00,,,0.00,0,WeatherCatV1.23B14,2013-11-03 02:36:00,
2013-11-02 19:46:00,54.8,48.4,29.83,NW,319,0.0,0.0,79,0.00,,,0.00,0,WeatherCatV1.23B14,2013-11-03 02:46:00,
2013-11-02 19:51:00,54.4,48.4,29.83,NNW,339,0.0,0.0,80,0.00,,,0.00,0,WeatherCatV1.23B14,2013-11-03 02:51:00,
2013-11-02 19:56:00,54.1,48.1,29.83,NNW,340,0.0,0.0,80,0.00,,,0.00,0,WeatherCatV1.23B14,2013-11-03 02:56:00,
2013-11-02 20:01:00,53.8,47.8,29.83,NNW,346,0.0,0.0,80,0.00,,,0.00,0,WeatherCatV1.23B14,2013-11-03 03:01:00,
2013-11-02 20:11:00,53.2,47.5,29.83,NNW,346,0.0,0.0,81,0.00,,,0.00,0,WeatherCatV1.23B14,2013-11-03 03:11:00,
2013-11-02 20:22:00,52.5,47.2,29.83,North,349,0.0,0.0,82,0.00,,,0.00,0,WeatherCatV1.23B14,2013-11-03 03:22:00,
2013-11-02 20:37:00,51.7,47.0,29.84,NNW,337,0.0,0.0,84,0.00,,,0.00,0,WeatherCatV1.23B14,2013-11-03 03:37:00,
2013-11-02 20:42:00,51.6,46.9,29.84,NW,311,0.0,0.0,84,0.00,,,0.00,0,WeatherCatV1.23B14,2013-11-03 03:42:00,
2013-11-02 20:47:00,51.4,46.7,29.84,NNW,342,0.0,0.0,84,0.00,,,0.00,0,WeatherCatV1.23B14,2013-11-03 03:47:00,
2013-11-02 20:57:00,50.8,46.5,29.84,NNW,339,0.0,0.0,85,0.00,,,0.00,0,WeatherCatV1.23B14,2013-11-03 03:57:00,
2013-11-02 21:02:00,50.7,46.4,29.84,NNW,342,0.0,0.0,85,0.00,,,0.00,0,WeatherCatV1.23B14,2013-11-03 04:02:00,
2013-11-02 21:07:00,50.5,46.2,29.84,NNW,347,0.0,0.0,85,0.00,,,0.00,0,WeatherCatV1.23B14,2013-11-03 04:07:00,
2013-11-02 21:12:00,50.4,46.1,29.84,NNW,347,0.0,0.0,85,0.00,,,0.00,0,WeatherCatV1.23B14,2013-11-03 04:12:00,
2013-11-02 21:17:00,50.1,46.1,29.84,North,353,0.0,0.0,86,0.00,,,0.00,0,WeatherCatV1.23B14,2013-11-03 04:17:00,
2013-11-02 21:22:00,49.8,45.8,29.84,NNW,332,0.0,0.0,86,0.00,,,0.00,0,WeatherCatV1.23B14,2013-11-03 04:22:00,
2013-11-02 21:32:00,49.4,45.4,29.84,WSW,246,0.0,0.0,86,0.00,,,0.00,0,WeatherCatV1.23B14,2013-11-03 04:32:00,
2013-11-02 21:42:00,49.1,45.1,29.84,SW,216,0.0,0.0,86,0.00,,,0.00,0,WeatherCatV1.23B14,2013-11-03 04:42:00,
2013-11-02 21:52:00,48.8,45.1,29.85,SW,224,0.0,0.0,87,0.00,,,0.00,0,WeatherCatV1.23B14,2013-11-03 04:52:00,
2013-11-02 22:02:00,48.5,44.8,29.85,SSW,206,0.0,0.0,87,0.00,,,0.00,0,WeatherCatV1.23B14,2013-11-03 05:02:00,
2013-11-02 22:12:00,48.0,44.3,29.85,SSW,206,0.0,0.0,87,0.00,,,0.00,0,WeatherCatV1.23B14,2013-11-03 05:12:00,
2013-11-02 22:22:00,47.7,44.3,29.86,SSW,205,0.0,0.0,88,0.00,,,0.00,0,WeatherCatV1.23B14,2013-11-03 05:22:00,
2013-11-02 22:32:00,47.4,44.3,29.86,SSW,205,0.0,0.0,89,0.00,,,0.00,0,WeatherCatV1.23B14,2013-11-03 05:32:00,
2013-11-02 22:42:00,47.1,44.0,29.86,SSW,205,0.0,0.0,89,0.00,,,0.00,0,WeatherCatV1.23B14,2013-11-03 05:42:00,
2013-11-02 22:52:00,47.0,43.9,29.86,SSW,205,0.0,0.0,89,0.00,,,0.00,0,WeatherCatV1.23B14,2013-11-03 05:52:00,
2013-11-02 22:57:00,46.7,43.6,29.86,SSW,206,0.0,0.0,89,0.00,,,0.00,0,WeatherCatV1.23B14,2013-11-03 05:57:00,
2013-11-02 23:02:00,46.7,43.6,29.87,SSW,206,0.0,0.0,89,0.00,,,0.00,0,WeatherCatV1.23B14,2013-11-03 06:02:00,
2013-11-02 23:07:00,46.4,43.3,29.87,SSW,205,0.0,0.0,89,0.00,,,0.00,0,WeatherCatV1.23B14,2013-11-03 06:07:00,
2013-11-02 23:12:00,46.4,43.3,29.87,SSW,205,0.0,0.0,89,0.00,,,0.00,0,WeatherCatV1.23B14,2013-11-03 06:12:00,
2013-11-02 23:27:00,46.1,43.0,29.87,SSW,203,0.0,0.0,89,0.00,,,0.00,0,WeatherCatV1.23B14,2013-11-03 06:27:00,
2013-11-02 23:37:00,45.8,43.0,29.87,SSW,203,0.0,0.0,90,0.00,,,0.00,0,WeatherCatV1.23B14,2013-11-03 06:37:00,
2013-11-02 23:47:00,45.7,42.9,29.88,SW,216,0.0,0.0,90,0.00,,,0.00,0,WeatherCatV1.23B14,2013-11-03 06:47:00,
2013-11-02 23:57:00,45.4,42.6,29.88,SSW,206,0.0,0.0,90,0.00,,,0.00,0,WeatherCatV1.23B14,2013-11-03 06:57:00,